Time;durP1;ratioP1;P1;durP2;ratioP2;P2;SDS_P1;SDS_P2;PMS_P1;PMS_P2;Temp;Humidity;BMP_temperature;BMP_pressure;BME280_temperature;BME280_humidity;BME280_pressure;Samples;Min_cycle;Max_cycle;Signal;HPM_P1;HPM_P2
2023/10/30 00:01:33;;;;;;;12.88;2.30;;;10.30;99.90;;;;;;5078675;28;20071;-77
2023/10/30 00:03:59;;;;;;;11.75;2.60;;;10.30;99.90;;;;;;5080576;28;20044;-78
2023/10/30 00:06:29;;;;;;;10.05;2.70;;;10.30;99.90;;;;;;5076234;28;20044;-78
2023/10/30 00:08:55;;;;;;;12.35;2.25;;;10.30;99.90;;;;;;5080869;28;20086;-77
2023/10/30 00:11:23;;;;;;;12.70;2.17;;;10.20;99.90;;;;;;5081608;28;20052;-77
2023/10/30 00:13:49;;;;;;;9.50;2.13;;;10.20;99.90;;;;;;5082694;28;20416;-77
2023/10/30 00:16:15;;;;;;;11.15;2.13;;;10.30;99.90;;;;;;5079884;28;20067;-76
2023/10/30 00:18:41;;;;;;;8.07;2.53;;;10.20;99.90;;;;;;5084855;28;20036;-77
2023/10/30 00:21:11;;;;;;;7.80;2.08;;;10.10;99.90;;;;;;5081478;28;20069;-77
2023/10/30 00:23:36;;;;;;;11.15;2.53;;;10.10;99.90;;;;;;5095188;28;20040;-77
2023/10/30 00:26:03;;;;;;;13.10;2.45;;;10.10;99.90;;;;;;5091734;28;20063;-76
2023/10/30 00:28:30;;;;;;;8.20;2.42;;;10.10;99.90;;;;;;5094885;28;20035;-77
2023/10/30 00:30:56;;;;;;;7.65;2.15;;;10.10;99.90;;;;;;5082601;28;20737;-76
2023/10/30 00:33:22;;;;;;;7.97;2.45;;;10.10;99.90;;;;;;5084721;28;20048;-77
2023/10/30 00:35:47;;;;;;;10.20;2.22;;;10.10;99.90;;;;;;5086944;28;20048;-77
2023/10/30 00:38:13;;;;;;;11.30;2.88;;;10.00;99.90;;;;;;5090514;28;20047;-77
2023/10/30 00:40:39;;;;;;;6.50;1.90;;;10.00;99.90;;;;;;5080566;28;20060;-78
2023/10/30 00:43:04;;;;;;;13.20;2.28;;;10.00;99.90;;;;;;5081770;28;20093;-77
2023/10/30 00:45:30;;;;;;;9.80;2.05;;;10.00;99.90;;;;;;5086668;28;20041;-77
2023/10/30 00:47:59;;;;;;;6.65;1.60;;;10.00;99.90;;;;;;5080901;28;20079;-78
2023/10/30 00:50:24;;;;;;;8.27;2.17;;;9.90;99.90;;;;;;5092978;28;20044;-77
2023/10/30 00:52:50;;;;;;;5.57;1.75;;;9.90;99.90;;;;;;5088667;28;20040;-77
2023/10/30 00:55:16;;;;;;;8.25;2.20;;;9.80;99.90;;;;;;5092534;28;20076;-77
2023/10/30 00:57:42;;;;;;;6.95;1.60;;;9.90;99.90;;;;;;5097734;28;20043;-76
2023/10/30 01:00:08;;;;;;;6.88;2.13;;;9.80;99.90;;;;;;5089276;28;20063;-76
2023/10/30 01:02:33;;;;;;;8.25;2.00;;;9.80;99.90;;;;;;5090085;28;20053;-76
2023/10/30 01:04:59;;;;;;;9.20;2.40;;;9.80;99.90;;;;;;5089000;28;20130;-77
2023/10/30 01:07:28;;;;;;;5.90;1.80;;;9.70;99.90;;;;;;5093126;28;20044;-76
2023/10/30 01:09:53;;;;;;;9.68;1.88;;;9.70;99.90;;;;;;5098940;27;20040;-78
2023/10/30 01:12:19;;;;;;;5.30;1.67;;;9.70;99.90;;;;;;5090014;28;20051;-77
2023/10/30 01:14:45;;;;;;;4.30;1.70;;;10.10;99.90;;;;;;5087043;28;20036;-76
2023/10/30 01:17:10;;;;;;;5.43;1.55;;;9.70;99.90;;;;;;5080742;28;20029;-77
2023/10/30 01:19:36;;;;;;;6.40;1.80;;;9.60;99.90;;;;;;5082183;28;20032;-77
2023/10/30 01:22:02;;;;;;;6.45;1.63;;;9.70;99.90;;;;;;5084560;28;20494;-77
2023/10/30 01:24:34;;;;;;;5.30;1.77;;;9.60;99.90;;;;;;5093409;28;20059;-77
2023/10/30 01:26:59;;;;;;;4.95;1.42;;;9.60;99.90;;;;;;5107577;28;20143;-77
2023/10/30 01:29:25;;;;;;;7.03;1.63;;;9.50;99.90;;;;;;5095546;28;20139;-77
2023/10/30 01:31:51;;;;;;;3.90;1.65;;;9.60;99.90;;;;;;5081776;28;20044;-77
2023/10/30 01:34:17;;;;;;;5.53;1.45;;;10.20;99.90;;;;;;5090318;28;20036;-77
2023/10/30 01:36:42;;;;;;;5.53;1.80;;;9.50;99.90;;;;;;5100899;28;20035;-77
2023/10/30 01:39:08;;;;;;;3.45;1.40;;;9.50;99.90;;;;;;5091129;28;20129;-77
2023/10/30 01:41:33;;;;;;;6.47;1.80;;;9.50;99.90;;;;;;5092277;28;20063;-78
2023/10/30 01:44:03;;;;;;;7.85;1.85;;;9.50;99.90;;;;;;5091785;28;20051;-77
2023/10/30 01:46:29;;;;;;;8.38;1.67;;;9.50;99.90;;;;;;5093957;28;20416;-78
2023/10/30 01:48:55;;;;;;;4.53;1.40;;;9.50;99.90;;;;;;5091034;28;20036;-78
2023/10/30 01:51:21;;;;;;;7.20;1.70;;;9.50;99.90;;;;;;5091135;28;20094;-77
2023/10/30 01:53:47;;;;;;;8.13;2.13;;;9.40;99.90;;;;;;5086503;28;20108;-77
2023/10/30 01:56:15;;;;;;;6.88;2.10;;;9.50;99.90;;;;;;5120411;27;20432;-77
2023/10/30 01:58:41;;;;;;;6.70;2.13;;;9.50;99.90;;;;;;5109094;28;20054;-77
2023/10/30 02:01:07;;;;;;;8.90;2.25;;;9.40;99.90;;;;;;5106624;28;20055;-77
2023/10/30 02:03:34;;;;;;;6.18;1.83;;;9.40;99.90;;;;;;5103150;28;20064;-77
2023/10/30 02:05:59;;;;;;;6.20;1.98;;;9.40;99.90;;;;;;5104762;28;20043;-77
2023/10/30 02:08:25;;;;;;;6.85;2.17;;;9.40;99.90;;;;;;5104551;28;20033;-78
2023/10/30 02:10:51;;;;;;;7.72;1.80;;;9.40;99.90;;;;;;5109139;28;20429;-78
2023/10/30 02:13:17;;;;;;;5.78;2.15;;;9.40;99.90;;;;;;5085530;28;20610;-78
2023/10/30 02:15:45;;;;;;;6.50;2.13;;;9.40;99.90;;;;;;5090982;28;20146;-77
2023/10/30 02:18:14;;;;;;;11.02;2.38;;;9.40;99.90;;;;;;5089154;28;20047;-77
2023/10/30 02:20:40;;;;;;;7.68;2.13;;;9.40;99.90;;;;;;5099552;27;20456;-77
2023/10/30 02:23:05;;;;;;;7.35;2.17;;;9.50;99.90;;;;;;5085180;28;20390;-77
2023/10/30 02:25:34;;;;;;;7.60;2.47;;;9.70;99.90;;;;;;5083598;28;20040;-77
2023/10/30 02:28:00;;;;;;;8.52;2.58;;;9.30;99.90;;;;;;5101133;28;20036;-76
2023/10/30 02:30:26;;;;;;;4.80;2.38;;;9.30;99.90;;;;;;5091536;28;20119;-77
2023/10/30 02:32:52;;;;;;;9.90;2.83;;;9.30;99.90;;;;;;5092926;28;20044;-76
2023/10/30 02:35:18;;;;;;;9.45;2.78;;;9.40;99.90;;;;;;5087812;28;20351;-77
2023/10/30 02:37:44;;;;;;;10.18;2.67;;;9.30;99.90;;;;;;5092702;28;20093;-77
2023/10/30 02:40:10;;;;;;;11.30;2.55;;;9.20;99.90;;;;;;5089376;28;20040;-77
2023/10/30 02:42:37;;;;;;;10.80;2.55;;;9.30;99.90;;;;;;5088053;28;20040;-77
2023/10/30 02:45:06;;;;;;;11.40;2.88;;;9.30;99.90;;;;;;5094634;28;20057;-78
2023/10/30 02:47:35;;;;;;;7.47;2.50;;;9.30;99.90;;;;;;5099169;28;20465;-77
2023/10/30 02:50:01;;;;;;;8.23;2.47;;;9.20;99.90;;;;;;5091085;28;20085;-77
2023/10/30 02:52:28;;;;;;;8.65;2.30;;;9.20;99.90;;;;;;5102866;28;20127;-78
2023/10/30 02:54:54;;;;;;;7.10;2.37;;;9.20;99.90;;;;;;5112763;28;20533;-78
2023/10/30 02:57:20;;;;;;;10.00;3.17;;;9.20;99.90;;;;;;5095747;28;20114;-78
2023/10/30 02:59:45;;;;;;;11.50;2.80;;;9.20;99.90;;;;;;5093511;28;20047;-78
2023/10/30 03:02:11;;;;;;;15.80;2.75;;;9.20;99.90;;;;;;5093336;28;20043;-77
2023/10/30 03:04:37;;;;;;;8.63;2.70;;;9.20;99.90;;;;;;5094574;28;20051;-77
2023/10/30 03:07:02;;;;;;;10.10;2.83;;;9.20;99.90;;;;;;5090927;28;20040;-77
2023/10/30 03:09:30;;;;;;;9.65;2.83;;;9.30;99.90;;;;;;5088226;28;20036;-77
2023/10/30 03:11:55;;;;;;;7.67;2.70;;;9.30;99.90;;;;;;5087751;28;20433;-77
2023/10/30 03:14:21;;;;;;;10.38;2.50;;;10.00;99.90;;;;;;5093438;28;20028;-78
2023/10/30 03:16:47;;;;;;;19.00;3.28;;;9.30;99.90;;;;;;5086956;28;20427;-78
2023/10/30 03:19:13;;;;;;;12.70;3.10;;;9.30;99.90;;;;;;5078128;28;20191;-77
2023/10/30 03:21:38;;;;;;;11.80;3.10;;;9.30;99.90;;;;;;5085512;28;20476;-76
2023/10/30 03:24:04;;;;;;;9.93;2.75;;;9.30;99.90;;;;;;5095879;28;20070;-76
2023/10/30 03:26:30;;;;;;;12.35;3.00;;;9.40;99.90;;;;;;5093996;28;20044;-77
2023/10/30 03:28:56;;;;;;;8.15;2.53;;;9.40;99.90;;;;;;5097057;28;20044;-77
2023/10/30 03:31:23;;;;;;;9.43;2.80;;;9.40;99.90;;;;;;5086125;28;20032;-77
2023/10/30 03:33:48;;;;;;;14.18;2.95;;;9.50;99.90;;;;;;5080212;28;20044;-77
2023/10/30 03:36:24;;;;;;;14.32;3.25;;;9.40;99.90;;;;;;5090653;28;20058;-77
2023/10/30 03:38:53;;;;;;;12.07;3.03;;;9.40;99.90;;;;;;5088352;28;20104;-75
2023/10/30 03:41:19;;;;;;;17.17;3.50;;;9.40;99.90;;;;;;5073987;28;20481;-78
2023/10/30 03:43:45;;;;;;;10.50;3.30;;;9.40;99.90;;;;;;5071803;28;20040;-77
2023/10/30 03:46:11;;;;;;;8.35;2.30;;;9.40;99.90;;;;;;5082699;28;20051;-76
2023/10/30 03:48:37;;;;;;;14.02;3.40;;;9.40;99.90;;;;;;5099962;27;20071;-78
2023/10/30 03:51:04;;;;;;;13.07;3.67;;;9.40;99.90;;;;;;5092483;28;20116;-77
2023/10/30 03:53:29;;;;;;;17.33;3.50;;;9.40;99.90;;;;;;5092227;28;20036;-76
2023/10/30 03:55:55;;;;;;;11.95;2.58;;;9.30;99.90;;;;;;5085530;28;20043;-76
2023/10/30 03:58:21;;;;;;;9.50;2.80;;;9.30;99.90;;;;;;5100154;28;20080;-77
2023/10/30 04:00:47;;;;;;;10.82;3.00;;;10.00;99.90;;;;;;5089418;28;20370;-77
2023/10/30 04:03:13;;;;;;;14.65;2.95;;;9.30;99.90;;;;;;5080383;28;20056;-77
2023/10/30 04:05:38;;;;;;;12.35;3.10;;;9.30;99.90;;;;;;5080895;28;20046;-76
2023/10/30 04:08:05;;;;;;;16.90;3.10;;;9.30;99.90;;;;;;5099701;28;20090;-77
2023/10/30 04:10:31;;;;;;;16.23;4.15;;;9.30;99.90;;;;;;5082659;28;20480;-77
2023/10/30 04:12:56;;;;;;;9.25;2.58;;;9.30;99.90;;;;;;5096344;28;20075;-77
2023/10/30 04:15:22;;;;;;;16.83;3.50;;;9.30;99.90;;;;;;5082254;28;20048;-77
2023/10/30 04:17:48;;;;;;;14.00;3.25;;;9.30;99.90;;;;;;5082908;28;20068;-77
2023/10/30 04:20:14;;;;;;;15.20;3.08;;;9.30;99.90;;;;;;5082271;28;20132;-77
2023/10/30 04:22:39;;;;;;;14.85;3.47;;;9.30;99.90;;;;;;5099666;28;20062;-77
2023/10/30 04:25:08;;;;;;;10.60;2.53;;;9.30;99.90;;;;;;5099850;28;20040;-76
2023/10/30 04:27:34;;;;;;;12.68;2.97;;;9.30;99.90;;;;;;5103305;28;20048;-75
2023/10/30 04:30:01;;;;;;;13.82;3.30;;;9.30;99.90;;;;;;5105103;28;20092;-77
2023/10/30 04:32:26;;;;;;;16.63;3.53;;;9.40;99.90;;;;;;5095199;28;20128;-78
2023/10/30 04:34:52;;;;;;;15.05;3.22;;;9.30;99.90;;;;;;5081288;28;20076;-76
2023/10/30 04:37:19;;;;;;;13.10;3.15;;;9.30;99.90;;;;;;5092495;28;20398;-76
2023/10/30 04:39:48;;;;;;;16.02;3.42;;;9.30;99.90;;;;;;5098954;28;20040;-77
2023/10/30 04:42:13;;;;;;;15.05;3.25;;;9.40;99.90;;;;;;5094889;28;20111;-78
2023/10/30 04:44:39;;;;;;;11.55;3.30;;;9.40;99.90;;;;;;5099100;28;20040;-78
2023/10/30 04:47:07;;;;;;;15.02;3.35;;;9.30;99.90;;;;;;5099850;28;20052;-76
2023/10/30 04:49:35;;;;;;;19.38;3.00;;;9.30;99.90;;;;;;5091066;28;20032;-77
2023/10/30 04:52:02;;;;;;;13.80;3.05;;;9.30;99.90;;;;;;5087578;28;20044;-77
2023/10/30 04:54:28;;;;;;;14.48;4.35;;;9.30;99.90;;;;;;5097040;28;20446;-76
2023/10/30 04:56:54;;;;;;;13.75;3.33;;;9.30;99.90;;;;;;5094239;28;20032;-77
2023/10/30 04:59:19;;;;;;;15.60;3.25;;;9.30;99.90;;;;;;5104359;28;20101;-78
2023/10/30 05:01:45;;;;;;;15.65;3.33;;;9.30;99.90;;;;;;5091800;28;20125;-77
2023/10/30 05:04:11;;;;;;;16.08;3.10;;;9.30;99.90;;;;;;5093856;28;20081;-76
2023/10/30 05:06:36;;;;;;;14.48;3.10;;;9.30;99.90;;;;;;5089283;28;20059;-77
2023/10/30 05:09:03;;;;;;;11.40;2.75;;;9.30;99.90;;;;;;5093451;28;20042;-77
2023/10/30 05:11:29;;;;;;;14.05;3.22;;;9.30;99.90;;;;;;5088708;28;20082;-77
2023/10/30 05:13:55;;;;;;;16.95;3.33;;;9.70;99.90;;;;;;5078624;28;20064;-77
2023/10/30 05:16:21;;;;;;;13.65;3.15;;;9.30;99.90;;;;;;5087366;28;20085;-77
2023/10/30 05:18:46;;;;;;;10.40;2.90;;;9.30;99.90;;;;;;5091120;28;20052;-77
2023/10/30 05:21:12;;;;;;;16.02;3.70;;;9.30;99.90;;;;;;5093535;28;20123;-76
2023/10/30 05:23:38;;;;;;;16.05;3.40;;;9.30;99.90;;;;;;5088720;28;20126;-79
2023/10/30 05:26:03;;;;;;;15.40;3.80;;;9.30;99.90;;;;;;5103991;28;20039;-76
2023/10/30 05:28:29;;;;;;;13.45;2.70;;;9.30;99.90;;;;;;5088772;28;20048;-77
2023/10/30 05:30:55;;;;;;;15.20;3.22;;;9.20;99.90;;;;;;5088553;28;20040;-77
2023/10/30 05:33:21;;;;;;;13.82;3.05;;;9.20;99.90;;;;;;5093483;28;20048;-77
2023/10/30 05:35:53;;;;;;;14.60;3.05;;;9.20;99.90;;;;;;5093398;28;20581;-79
2023/10/30 05:38:18;;;;;;;13.88;3.53;;;9.20;99.90;;;;;;5100202;28;20072;-76
2023/10/30 05:40:47;;;;;;;16.77;3.33;;;9.20;99.90;;;;;;5098909;28;20067;-78
2023/10/30 05:43:13;;;;;;;16.13;3.22;;;9.70;99.90;;;;;;5115692;27;20482;-77
2023/10/30 05:45:39;;;;;;;16.73;3.92;;;9.10;99.90;;;;;;5090737;28;20493;-77
2023/10/30 05:48:05;;;;;;;14.00;3.30;;;9.20;99.90;;;;;;5094465;28;20032;-76
2023/10/30 05:50:31;;;;;;;22.48;3.28;;;9.10;99.90;;;;;;5092325;28;20490;-76
2023/10/30 05:52:56;;;;;;;15.27;3.03;;;9.60;99.90;;;;;;5083925;28;20123;-76
2023/10/30 05:55:22;;;;;;;19.70;3.97;;;9.10;99.90;;;;;;5095087;28;20036;-76
2023/10/30 05:57:48;;;;;;;14.63;3.20;;;9.20;99.90;;;;;;5093096;28;20055;-76
2023/10/30 06:00:14;;;;;;;18.35;3.58;;;9.10;99.90;;;;;;5110665;27;20542;-78
2023/10/30 06:02:40;;;;;;;11.20;2.90;;;9.10;99.90;;;;;;5097821;28;20039;-77
2023/10/30 06:05:08;;;;;;;21.58;3.45;;;9.10;99.90;;;;;;5081688;28;20048;-76
2023/10/30 06:07:34;;;;;;;12.77;3.63;;;9.10;99.90;;;;;;5086075;28;20044;-78
2023/10/30 06:10:00;;;;;;;14.07;3.22;;;9.00;99.90;;;;;;5084398;28;20056;-76
2023/10/30 06:12:26;;;;;;;16.55;3.95;;;9.10;99.90;;;;;;5095612;28;20046;-76
2023/10/30 06:14:55;;;;;;;14.80;3.42;;;9.00;99.90;;;;;;5100570;28;20040;-76
2023/10/30 06:17:23;;;;;;;13.55;3.30;;;9.10;99.90;;;;;;5080162;28;20071;-77
2023/10/30 06:19:49;;;;;;;15.20;3.42;;;9.00;99.90;;;;;;5087610;28;20047;-77
2023/10/30 06:22:17;;;;;;;15.00;3.28;;;9.00;99.90;;;;;;5092333;28;20482;-78
2023/10/30 06:24:43;;;;;;;16.00;3.65;;;9.00;99.90;;;;;;5085565;28;20091;-77
2023/10/30 06:27:09;;;;;;;13.70;3.50;;;9.90;99.90;;;;;;5083820;28;20097;-78
2023/10/30 06:29:35;;;;;;;15.50;3.42;;;9.00;99.90;;;;;;5105965;27;20046;-76
2023/10/30 06:32:02;;;;;;;16.33;4.28;;;9.10;99.90;;;;;;5095244;28;20386;-77
2023/10/30 06:34:28;;;;;;;17.52;4.20;;;9.00;99.90;;;;;;5095459;28;20049;-77
2023/10/30 06:36:54;;;;;;;16.33;5.07;;;9.10;99.90;;;;;;5088296;28;20036;-76
2023/10/30 06:39:20;;;;;;;15.40;3.72;;;9.00;99.90;;;;;;5082393;28;20425;-78
2023/10/30 06:41:48;;;;;;;14.88;3.90;;;9.10;99.90;;;;;;5102250;27;20510;-76
2023/10/30 06:44:15;;;;;;;15.60;3.88;;;9.10;99.90;;;;;;5097849;28;20420;-77
2023/10/30 06:46:40;;;;;;;14.07;3.72;;;9.10;99.90;;;;;;5094444;28;20040;-76
2023/10/30 06:49:06;;;;;;;15.98;3.85;;;9.10;99.90;;;;;;5084018;28;20109;-77
2023/10/30 06:51:32;;;;;;;16.88;3.50;;;9.20;99.90;;;;;;5095158;28;20127;-77
2023/10/30 06:53:57;;;;;;;21.35;3.70;;;9.20;99.90;;;;;;5089482;28;20044;-77
2023/10/30 06:56:23;;;;;;;14.40;3.33;;;9.20;99.90;;;;;;5097311;28;20086;-77
2023/10/30 06:58:49;;;;;;;19.20;3.85;;;9.20;99.90;;;;;;5080909;28;20039;-76
2023/10/30 07:01:14;;;;;;;13.45;3.55;;;9.30;99.90;;;;;;5080896;28;20064;-78
2023/10/30 07:03:40;;;;;;;17.10;3.53;;;9.30;99.90;;;;;;5077238;28;20402;-78
2023/10/30 07:06:10;;;;;;;13.00;3.20;;;9.40;99.90;;;;;;5082594;28;20801;-77
2023/10/30 07:08:36;;;;;;;17.02;3.90;;;9.40;99.90;;;;;;5083060;28;20055;-76
2023/10/30 07:11:02;;;;;;;17.63;3.05;;;9.50;99.90;;;;;;5078663;28;20037;-76
2023/10/30 07:13:28;;;;;;;21.80;4.50;;;9.50;99.90;;;;;;5080113;28;20056;-77
2023/10/30 07:15:54;;;;;;;14.63;3.45;;;10.20;99.90;;;;;;5100990;28;20377;-77
2023/10/30 07:18:19;;;;;;;20.13;3.55;;;9.60;99.90;;;;;;5079452;28;20040;-77
2023/10/30 07:20:45;;;;;;;12.20;3.00;;;9.60;99.90;;;;;;5091712;28;20172;-77
2023/10/30 07:23:10;;;;;;;15.48;3.40;;;9.90;99.90;;;;;;5086411;28;20044;-77
2023/10/30 07:25:36;;;;;;;19.73;4.07;;;9.70;99.90;;;;;;5079638;28;20043;-77
2023/10/30 07:28:02;;;;;;;14.40;3.22;;;9.80;99.90;;;;;;5079689;28;20573;-76
2023/10/30 07:30:28;;;;;;;19.42;3.70;;;9.80;99.90;;;;;;5080890;28;20055;-76
2023/10/30 07:32:54;;;;;;;14.63;3.60;;;9.90;99.90;;;;;;5079251;28;20036;-76
2023/10/30 07:35:22;;;;;;;13.50;3.28;;;10.00;99.90;;;;;;5083664;28;20063;-75
2023/10/30 07:37:48;;;;;;;14.70;3.42;;;10.00;99.90;;;;;;5081075;28;20618;-76
2023/10/30 07:40:14;;;;;;;17.83;3.72;;;10.20;99.90;;;;;;5094991;28;20595;-77
2023/10/30 07:42:39;;;;;;;18.83;3.50;;;10.20;99.90;;;;;;5096324;28;20076;-77
2023/10/30 07:45:05;;;;;;;18.73;3.55;;;10.30;99.90;;;;;;5079891;28;20041;-76
2023/10/30 07:47:31;;;;;;;16.13;3.90;;;10.40;99.90;;;;;;5086348;28;20124;-76
2023/10/30 07:49:59;;;;;;;14.55;3.53;;;10.40;99.90;;;;;;5078565;28;20117;-77
2023/10/30 07:52:28;;;;;;;20.10;3.92;;;10.50;99.90;;;;;;5078836;28;20039;-76
2023/10/30 07:54:57;;;;;;;18.73;3.78;;;10.60;99.90;;;;;;5084556;28;20139;-77
2023/10/30 07:57:22;;;;;;;15.15;3.35;;;10.70;99.90;;;;;;5081700;28;20063;-78
2023/10/30 07:59:48;;;;;;;13.77;3.42;;;10.80;99.90;;;;;;5083614;28;20045;-77
2023/10/30 08:02:14;;;;;;;16.90;3.60;;;10.90;99.90;;;;;;5084956;28;20513;-76
2023/10/30 08:04:39;;;;;;;13.73;3.30;;;11.00;99.90;;;;;;5098069;28;20094;-78
2023/10/30 08:07:05;;;;;;;18.98;3.22;;;11.10;99.90;;;;;;5083364;28;20092;-76
2023/10/30 08:09:30;;;;;;;14.07;3.28;;;11.10;99.90;;;;;;5082807;28;20041;-77
2023/10/30 08:11:56;;;;;;;15.02;4.13;;;11.20;99.90;;;;;;5088243;28;20145;-78
2023/10/30 08:14:22;;;;;;;14.40;3.00;;;11.20;99.90;;;;;;5096103;28;20032;-77
2023/10/30 08:16:50;;;;;;;16.67;3.70;;;11.30;99.90;;;;;;5083946;28;20043;-76
2023/10/30 08:19:16;;;;;;;16.08;3.30;;;11.30;99.90;;;;;;5088094;28;20356;-77
2023/10/30 08:21:42;;;;;;;14.05;3.40;;;11.40;99.90;;;;;;5092883;28;20104;-77
2023/10/30 08:24:09;;;;;;;20.10;3.97;;;11.50;99.90;;;;;;5104771;28;20040;-77
2023/10/30 08:26:35;;;;;;;20.20;3.30;;;11.50;99.90;;;;;;5079830;28;20040;-76
2023/10/30 08:29:00;;;;;;;14.82;3.53;;;11.60;99.90;;;;;;5080569;28;20040;-77
2023/10/30 08:31:26;;;;;;;15.70;3.35;;;11.70;99.90;;;;;;5079631;28;20538;-76
2023/10/30 08:33:52;;;;;;;14.02;3.20;;;12.30;99.90;;;;;;5099370;28;20043;-79
2023/10/30 08:36:21;;;;;;;15.68;3.50;;;11.90;99.90;;;;;;5080893;28;20477;-77
2023/10/30 08:38:47;;;;;;;15.77;3.40;;;12.00;99.90;;;;;;5079319;28;20040;-77
2023/10/30 08:41:17;;;;;;;15.55;3.50;;;12.10;99.90;;;;;;5081551;28;20110;-77
2023/10/30 08:43:44;;;;;;;19.23;4.00;;;12.30;99.90;;;;;;5081517;28;20047;-76
2023/10/30 08:46:15;;;;;;;19.00;2.72;;;12.40;99.90;;;;;;5081027;28;20512;-76
2023/10/30 08:48:40;;;;;;;11.73;3.33;;;12.50;99.90;;;;;;5083294;28;20127;-77
2023/10/30 08:51:09;;;;;;;12.98;3.30;;;12.70;99.90;;;;;;5095465;28;20512;-76
2023/10/30 08:53:35;;;;;;;11.55;2.85;;;12.80;99.90;;;;;;5080529;28;20037;-78
2023/10/30 08:56:01;;;;;;;13.70;3.53;;;12.90;99.90;;;;;;5080743;28;20032;-78
2023/10/30 08:58:26;;;;;;;17.05;3.55;;;13.00;99.90;;;;;;5066388;28;20119;-78
2023/10/30 09:00:53;;;;;;;13.93;3.22;;;13.10;99.90;;;;;;5079128;28;20044;-78
2023/10/30 09:03:19;;;;;;;13.15;3.00;;;13.40;99.90;;;;;;5079342;28;20106;-77
2023/10/30 09:05:45;;;;;;;16.92;3.72;;;13.20;99.90;;;;;;5081932;28;20052;-78
2023/10/30 09:08:11;;;;;;;17.95;3.35;;;13.30;99.90;;;;;;5080111;28;20068;-78
2023/10/30 09:10:37;;;;;;;15.77;3.00;;;13.40;99.90;;;;;;5083613;28;20066;-80
2023/10/30 09:13:03;;;;;;;10.20;3.03;;;13.50;99.90;;;;;;5100395;27;20485;-78
2023/10/30 09:15:28;;;;;;;17.38;3.85;;;13.70;99.90;;;;;;5083868;28;20044;-78
2023/10/30 09:17:55;;;;;;;13.07;3.25;;;13.80;99.90;;;;;;5085307;28;20489;-80
2023/10/30 09:20:21;;;;;;;9.68;3.05;;;14.00;99.90;;;;;;5088600;28;20075;-78
2023/10/30 09:22:48;;;;;;;15.75;3.60;;;13.90;99.90;;;;;;5092746;28;20040;-79
2023/10/30 09:25:14;;;;;;;11.07;3.83;;;13.80;99.90;;;;;;5083486;28;20116;-78
2023/10/30 09:27:39;;;;;;;14.63;4.15;;;13.80;99.90;;;;;;5088872;28;20072;-77
2023/10/30 09:30:06;;;;;;;13.10;3.20;;;14.00;99.90;;;;;;5092675;28;20040;-79
2023/10/30 09:32:32;;;;;;;17.58;3.78;;;14.00;99.90;;;;;;5093952;28;20146;-78
2023/10/30 09:34:59;;;;;;;10.90;3.05;;;14.10;99.90;;;;;;5103264;28;20040;-78
2023/10/30 09:37:27;;;;;;;16.58;3.92;;;14.00;99.90;;;;;;5113524;28;20101;-78
2023/10/30 09:39:56;;;;;;;17.67;3.40;;;14.00;99.90;;;;;;5084440;28;20048;-79
2023/10/30 09:42:24;;;;;;;12.75;3.30;;;13.90;99.90;;;;;;5087735;28;20059;-79
2023/10/30 09:44:50;;;;;;;10.23;3.10;;;13.80;99.90;;;;;;5090035;28;20189;-79
2023/10/30 09:47:19;;;;;;;16.35;3.50;;;13.80;99.90;;;;;;5094193;28;20094;-79
2023/10/30 09:49:47;;;;;;;20.33;4.03;;;14.40;99.90;;;;;;5084625;28;20044;-78
2023/10/30 09:52:15;;;;;;;11.77;3.00;;;14.30;99.90;;;;;;5100382;28;20043;-78
2023/10/30 09:54:44;;;;;;;;;;;14.50;99.90;;;;;;5106876;28;20396;-78
2023/10/30 09:57:12;;;;;;;15.20;3.70;;;14.90;99.90;;;;;;5100772;28;19988;-79
2023/10/30 09:59:38;;;;;;;11.93;2.65;;;15.20;99.90;;;;;;5104358;28;20300;-80
2023/10/30 10:02:04;;;;;;;12.23;3.20;;;15.50;99.90;;;;;;5107100;28;20071;-79
2023/10/30 10:04:30;;;;;;;12.30;3.00;;;15.70;99.90;;;;;;5098155;28;20051;-79
2023/10/30 10:06:59;;;;;;;14.82;3.22;;;16.00;99.90;;;;;;5097424;28;20044;-79
2023/10/30 10:09:25;;;;;;;11.65;2.72;;;16.40;99.90;;;;;;5102049;28;20028;-79
2023/10/30 10:11:51;;;;;;;12.13;3.00;;;16.70;99.90;;;;;;5090476;28;20040;-80
2023/10/30 10:14:16;;;;;;;16.67;2.72;;;16.80;99.90;;;;;;5093839;28;20178;-80
2023/10/30 10:16:42;;;;;;;11.95;3.03;;;16.80;99.90;;;;;;5098355;28;20036;-79
2023/10/30 10:19:24;;;;;;;13.88;3.03;;;17.10;99.90;;;;;;5096462;28;20496;-78
2023/10/30 10:21:51;;;;;;;14.52;2.90;;;17.00;99.90;;;;;;5091984;28;20051;-78
2023/10/30 10:24:37;;;;;;;10.73;3.05;;;17.30;99.90;;;;;;5105204;28;20060;-80
2023/10/30 10:27:06;;;;;;;18.60;3.33;;;17.40;99.90;;;;;;5082191;28;20071;-79
2023/10/30 10:29:35;;;;;;;11.82;2.83;;;17.50;99.90;;;;;;5067575;28;20044;-80
2023/10/30 10:32:01;;;;;;;16.90;2.97;;;17.70;99.90;;;;;;5091491;28;20036;-80
2023/10/30 10:34:33;;;;;;;13.82;3.58;;;17.90;99.90;;;;;;5095266;28;20031;-80
2023/10/30 10:37:02;;;;;;;9.82;2.60;;;17.80;99.90;;;;;;5097110;28;20036;-82
2023/10/30 10:39:50;;;;;;;10.60;2.90;;;17.60;99.90;;;;;;5092064;28;20068;-79
2023/10/30 10:42:20;;;;;;;11.32;2.30;;;17.20;99.90;;;;;;5089035;28;20098;-79
2023/10/30 10:44:51;;;;;;;10.93;2.78;;;16.90;99.90;;;;;;5093929;28;20066;-80
2023/10/30 10:47:17;;;;;;;14.02;2.83;;;16.60;99.90;;;;;;5082776;28;20048;-78
2023/10/30 10:49:46;;;;;;;14.55;2.90;;;16.40;99.90;;;;;;5113082;28;20043;-79
2023/10/30 10:52:14;;;;;;;12.07;2.90;;;16.00;99.90;;;;;;5100110;28;20036;-79
2023/10/30 10:54:46;;;;;;;9.00;2.80;;;16.00;99.90;;;;;;5082965;28;20048;-80
2023/10/30 10:57:20;;;;;;;18.77;3.30;;;15.80;99.90;;;;;;5086482;28;20044;-79
2023/10/30 10:59:47;;;;;;;12.05;3.10;;;15.80;99.90;;;;;;5091923;28;20068;-79
2023/10/30 11:02:21;;;;;;;10.70;2.80;;;15.60;99.90;;;;;;5098560;28;20040;-80
2023/10/30 11:04:50;;;;;;;12.02;2.90;;;15.60;99.90;;;;;;5082923;28;20064;-78
2023/10/30 11:07:25;;;;;;;19.50;3.60;;;15.60;99.90;;;;;;5089639;28;20043;-78
2023/10/30 11:09:57;;;;;;;11.15;2.97;;;16.30;99.90;;;;;;5081054;28;20485;-78
2023/10/30 11:12:25;;;;;;;13.02;2.97;;;15.60;99.90;;;;;;5090368;28;20044;-78
2023/10/30 11:15:16;;;;;;;16.77;3.28;;;15.70;99.90;;;;;;5091304;28;20040;-79
2023/10/30 11:18:21;;;;;;;16.40;3.13;;;15.70;99.90;;;;;;5102319;28;20062;-77
2023/10/30 11:21:08;;;;;;;13.07;3.00;;;15.70;99.90;;;;;;5083748;28;20056;-79
2023/10/30 11:23:52;;;;;;;12.70;2.85;;;15.60;99.90;;;;;;5086314;28;20060;-79
2023/10/30 11:26:44;;;;;;;16.58;3.00;;;15.50;99.90;;;;;;5110589;27;20040;-81
2023/10/30 11:29:21;;;;;;;14.38;3.22;;;15.50;99.90;;;;;;5106085;28;20059;-78
2023/10/30 11:31:54;;;;;;;19.33;3.20;;;15.30;99.90;;;;;;5097506;28;20116;-78
2023/10/30 11:34:37;;;;;;;13.45;3.47;;;15.20;99.90;;;;;;5092254;28;20070;-78
2023/10/30 11:37:15;;;;;;;9.27;2.55;;;15.10;99.90;;;;;;5104021;28;20048;-79
2023/10/30 11:39:45;;;;;;;18.38;3.17;;;15.00;99.90;;;;;;5094712;28;20041;-80
2023/10/30 11:42:29;;;;;;;10.50;3.13;;;15.00;99.90;;;;;;5105270;28;20047;-80
2023/10/30 11:45:21;;;;;;;15.38;3.08;;;14.90;99.90;;;;;;5086783;28;20045;-80
2023/10/30 11:47:55;;;;;;;11.90;3.15;;;14.80;99.90;;;;;;5099087;28;20058;-79
2023/10/30 11:50:28;;;;;;;11.32;2.90;;;14.70;99.90;;;;;;5100784;28;20123;-80
2023/10/30 11:53:05;;;;;;;18.92;3.45;;;14.60;99.90;;;;;;5098528;28;20092;-78
2023/10/30 11:55:31;;;;;;;13.95;4.13;;;15.10;99.90;;;;;;5093791;28;20558;-78
2023/10/30 11:57:59;;;;;;;20.05;3.47;;;15.00;99.90;;;;;;5092524;28;20044;-80
2023/10/30 12:00:28;;;;;;;12.52;3.80;;;14.60;99.90;;;;;;5088955;28;20036;-79
2023/10/30 12:02:58;;;;;;;16.10;3.17;;;14.60;99.90;;;;;;5080672;28;20158;-79
2023/10/30 12:05:29;;;;;;;16.77;3.75;;;14.60;99.90;;;;;;5090699;28;20060;-79
2023/10/30 12:07:55;;;;;;;12.50;2.72;;;14.60;99.90;;;;;;5094408;28;20128;-80
2023/10/30 12:10:21;;;;;;;17.75;3.45;;;14.60;99.90;;;;;;5081106;28;20409;-80
2023/10/30 12:12:50;;;;;;;14.40;3.33;;;14.70;99.90;;;;;;5089564;28;20054;-80
2023/10/30 12:15:16;;;;;;;16.98;3.67;;;14.60;99.90;;;;;;5088306;28;20040;-80
2023/10/30 12:17:42;;;;;;;18.92;3.45;;;14.60;99.90;;;;;;5081445;28;20033;-79
2023/10/30 12:20:09;;;;;;;12.90;2.97;;;14.60;99.90;;;;;;5078702;28;20393;-79
2023/10/30 12:22:41;;;;;;;13.83;3.57;;;14.50;99.90;;;;;;5095749;28;20409;-79
2023/10/30 12:25:08;;;;;;;11.70;3.20;;;14.50;99.90;;;;;;5090824;28;20039;-78
2023/10/30 12:27:34;;;;;;;15.15;3.22;;;14.40;99.90;;;;;;5089573;28;20452;-78
2023/10/30 12:30:13;;;;;;;12.85;3.40;;;14.40;99.90;;;;;;5081513;28;20047;-78
2023/10/30 12:32:39;;;;;;;17.40;3.17;;;14.30;99.90;;;;;;5085792;28;20068;-79
2023/10/30 12:35:15;;;;;;;16.08;3.85;;;14.20;99.90;;;;;;5084896;28;20040;-78
2023/10/30 12:37:41;;;;;;;10.50;3.20;;;14.20;99.90;;;;;;5081569;28;20037;-79
2023/10/30 12:40:09;;;;;;;13.68;3.38;;;14.20;99.90;;;;;;5090994;28;20044;-78
2023/10/30 12:42:40;;;;;;;13.85;3.47;;;14.20;99.90;;;;;;5078789;28;20032;-77
2023/10/30 12:45:07;;;;;;;14.18;3.00;;;14.30;99.90;;;;;;5079445;28;20040;-78
2023/10/30 12:47:36;;;;;;;12.73;3.03;;;14.30;99.90;;;;;;5089707;28;20449;-80